Airfield :
LOGIN :

Register | Disclaimer

   EN    FR    IT 

 










Legend :    VFR   Marginal VFR   IFR   Intensive IFR   Very Intensive IFR
Visi :
Ceiling :
>= 8 km
>= 3000ft
5 to 8 km
1000 to 3000 ft
1500m to 5 km
500 to 1000 ft
800 to 1500m
200 to 500 ft
< 800m
< 200 ft
Symbols :   Thunderstorms  Fog  Heavy snow  Heavy precipitations  Wind > 20 kt
SIGMETs :     Misc.  Thunderstorms  Icing  Turbulence  Mountain Waves  Volcanic Ashes






- Airport Elevation : 277 ft
- IATA code : JER


EGJJ - Jersey

CURRENT METAR :
  • 280650Z 25007KT 9999 FEW006 SCT012 BKN038 08/08 Q1021

EXPIRED METARs :
  • 280620Z 25007KT 9999 FEW008 SCT013 BKN039 08/08 Q1021
  • 280550Z 25006KT 9999 6000NE FEW000 SCT003 BKN008 08/08 Q1021
  • 280520Z AUTO 25006KT 0200 FG OVC001/// 08/08 Q1021
  • 280450Z AUTO 26007KT 230V290 1400 OVC002/// 09/09 Q1021
  • 280420Z AUTO 29006KT 260V320 0300 BKN002/// OVC003/// 09/09 Q1021
  • 280350Z AUTO 25007KT 0150 FG OVC001/// 09/09 Q1021
  • 280320Z AUTO 23008KT 200V260 0150 FG OVC001/// 09/09 Q1021
  • 280250Z AUTO 22007KT 0400 FG OVC002/// 09/09 Q1021
  • 280220Z AUTO 21008KT 4900 OVC002/// 09/09 Q1021

TAF TAF EGJJ
Valid from the 28 at 06:00 until the 28 at 15:00 UTC


280508Z 2806/2815 23008KT 0300 -DZ FG BKN000
BECMG 2806/2808 8000 NSW SCT006 BKN010
PROB40
TEMPO 2806/2812 9999 SCT010 BKN020
TEMPO 2813/2815 4000 RADZ BKN008
ATIS : +44 1534 498 073



MET'MAP, your aeronautical weather chart ! - Copyright ORBIFLY December 2007 - Disclaimer

ORBIFLY MET'MAP TEAM :

Programming & Development : Alexandra Zaïnal
Original concept : Baudouin d'Aumeries
Technical & hardware support : Manuel Goepfert
Assistance : Marc-Olivier Méhu




SOURCES & CREDITS :

   NOAA